sensor_id;sensor_type;location;lat;lon;timestamp;P1;P2;P0
48893;PMS5003;34710;35.798;139.446;2022-09-09T00:00:32;7;7;
48893;PMS5003;34710;35.798;139.446;2022-09-09T00:03:05;12;8;
48893;PMS5003;34710;35.798;139.446;2022-09-09T00:05:41;8;8;
48893;PMS5003;34710;35.798;139.446;2022-09-09T00:08:20;7;7;
48893;PMS5003;34710;35.798;139.446;2022-09-09T00:10:58;9;9;
48893;PMS5003;34710;35.798;139.446;2022-09-09T00:13:32;6;5;
48893;PMS5003;34710;35.798;139.446;2022-09-09T00:16:12;7;7;
48893;PMS5003;34710;35.798;139.446;2022-09-09T00:18:48;9;8;
48893;PMS5003;34710;35.798;139.446;2022-09-09T00:21:30;8;7;
48893;PMS5003;34710;35.798;139.446;2022-09-09T00:24:08;7;7;
48893;PMS5003;34710;35.798;139.446;2022-09-09T00:26:47;6;5;
48893;PMS5003;34710;35.798;139.446;2022-09-09T00:29:22;7;7;
48893;PMS5003;34710;35.798;139.446;2022-09-09T00:31:56;9;5;
48893;PMS5003;34710;35.798;139.446;2022-09-09T00:34:33;7;4;
48893;PMS5003;34710;35.798;139.446;2022-09-09T00:37:03;8;7;
48893;PMS5003;34710;35.798;139.446;2022-09-09T00:39:34;9;6;
48893;PMS5003;34710;35.798;139.446;2022-09-09T00:42:12;8;7;
48893;PMS5003;34710;35.798;139.446;2022-09-09T00:44:50;7;7;
48893;PMS5003;34710;35.798;139.446;2022-09-09T00:47:34;5;5;
48893;PMS5003;34710;35.798;139.446;2022-09-09T00:50:15;8;6;
48893;PMS5003;34710;35.798;139.446;2022-09-09T00:53:05;7;7;
48893;PMS5003;34710;35.798;139.446;2022-09-09T00:55:45;7;7;
48893;PMS5003;34710;35.798;139.446;2022-09-09T00:58:20;6;6;
48893;PMS5003;34710;35.798;139.446;2022-09-09T01:00:51;8;8;
48893;PMS5003;34710;35.798;139.446;2022-09-09T01:03:27;7;6;
48893;PMS5003;34710;35.798;139.446;2022-09-09T01:06:11;6;6;
48893;PMS5003;34710;35.798;139.446;2022-09-09T01:08:52;7;7;
48893;PMS5003;34710;35.798;139.446;2022-09-09T01:11:33;6;6;
48893;PMS5003;34710;35.798;139.446;2022-09-09T01:14:14;7;6;
48893;PMS5003;34710;35.798;139.446;2022-09-09T01:16:51;6;6;
48893;PMS5003;34710;35.798;139.446;2022-09-09T01:19:27;8;7;
48893;PMS5003;34710;35.798;139.446;2022-09-09T01:22:10;8;8;
48893;PMS5003;34710;35.798;139.446;2022-09-09T01:24:55;8;7;
48893;PMS5003;34710;35.798;139.446;2022-09-09T01:27:39;6;6;
48893;PMS5003;34710;35.798;139.446;2022-09-09T01:30:10;7;5;
48893;PMS5003;34710;35.798;139.446;2022-09-09T01:32:43;5;4;
48893;PMS5003;34710;35.798;139.446;2022-09-09T01:35:15;6;6;
48893;PMS5003;34710;35.798;139.446;2022-09-09T01:37:54;7;7;
48893;PMS5003;34710;35.798;139.446;2022-09-09T01:40:24;6;5;
48893;PMS5003;34710;35.798;139.446;2022-09-09T01:42:53;8;7;
48893;PMS5003;34710;35.798;139.446;2022-09-09T01:45:24;6;6;
48893;PMS5003;34710;35.798;139.446;2022-09-09T01:47:53;6;6;
48893;PMS5003;34710;35.798;139.446;2022-09-09T01:50:23;6;5;
48893;PMS5003;34710;35.798;139.446;2022-09-09T01:52:53;4;4;
48893;PMS5003;34710;35.798;139.446;2022-09-09T01:55:28;5;5;
48893;PMS5003;34710;35.798;139.446;2022-09-09T01:58:03;7;7;
48893;PMS5003;34710;35.798;139.446;2022-09-09T02:00:50;7;7;
48893;PMS5003;34710;35.798;139.446;2022-09-09T02:03:27;8;6;
48893;PMS5003;34710;35.798;139.446;2022-09-09T02:06:00;8;5;
48893;PMS5003;34710;35.798;139.446;2022-09-09T02:08:42;5;4;
48893;PMS5003;34710;35.798;139.446;2022-09-09T02:11:15;8;7;
48893;PMS5003;34710;35.798;139.446;2022-09-09T02:13:47;11;6;
48893;PMS5003;34710;35.798;139.446;2022-09-09T02:16:21;8;7;
48893;PMS5003;34710;35.798;139.446;2022-09-09T02:18:54;6;6;
48893;PMS5003;34710;35.798;139.446;2022-09-09T02:21:28;7;6;
48893;PMS5003;34710;35.798;139.446;2022-09-09T02:23:59;7;7;
48893;PMS5003;34710;35.798;139.446;2022-09-09T02:26:32;5;5;
48893;PMS5003;34710;35.798;139.446;2022-09-09T02:29:04;11;7;
48893;PMS5003;34710;35.798;139.446;2022-09-09T02:31:38;5;5;
48893;PMS5003;34710;35.798;139.446;2022-09-09T02:34:08;10;6;
48893;PMS5003;34710;35.798;139.446;2022-09-09T02:36:40;6;6;
48893;PMS5003;34710;35.798;139.446;2022-09-09T02:39:11;4;4;
48893;PMS5003;34710;35.798;139.446;2022-09-09T02:41:41;8;8;
48893;PMS5003;34710;35.798;139.446;2022-09-09T02:44:11;6;6;
48893;PMS5003;34710;35.798;139.446;2022-09-09T02:46:46;6;6;
48893;PMS5003;34710;35.798;139.446;2022-09-09T02:49:32;7;7;
48893;PMS5003;34710;35.798;139.446;2022-09-09T02:52:13;6;6;
48893;PMS5003;34710;35.798;139.446;2022-09-09T02:54:46;7;7;
48893;PMS5003;34710;35.798;139.446;2022-09-09T02:57:22;8;8;
48893;PMS5003;34710;35.798;139.446;2022-09-09T02:59:56;8;8;
48893;PMS5003;34710;35.798;139.446;2022-09-09T03:02:26;11;8;
48893;PMS5003;34710;35.798;139.446;2022-09-09T03:04:55;6;6;
48893;PMS5003;34710;35.798;139.446;2022-09-09T03:07:24;7;7;
48893;PMS5003;34710;35.798;139.446;2022-09-09T03:09:53;9;8;
48893;PMS5003;34710;35.798;139.446;2022-09-09T03:12:23;11;11;
48893;PMS5003;34710;35.798;139.446;2022-09-09T03:14:52;10;8;
48893;PMS5003;34710;35.798;139.446;2022-09-09T03:17:22;11;10;
48893;PMS5003;34710;35.798;139.446;2022-09-09T03:19:51;8;8;
48893;PMS5003;34710;35.798;139.446;2022-09-09T03:22:21;9;8;
48893;PMS5003;34710;35.798;139.446;2022-09-09T03:24:50;7;7;
48893;PMS5003;34710;35.798;139.446;2022-09-09T03:27:19;8;8;
48893;PMS5003;34710;35.798;139.446;2022-09-09T03:29:48;10;9;
48893;PMS5003;34710;35.798;139.446;2022-09-09T03:32:18;7;7;
48893;PMS5003;34710;35.798;139.446;2022-09-09T03:34:47;9;7;
48893;PMS5003;34710;35.798;139.446;2022-09-09T03:37:16;8;7;
48893;PMS5003;34710;35.798;139.446;2022-09-09T03:39:46;7;7;
48893;PMS5003;34710;35.798;139.446;2022-09-09T03:42:16;9;7;
48893;PMS5003;34710;35.798;139.446;2022-09-09T03:44:46;8;7;
48893;PMS5003;34710;35.798;139.446;2022-09-09T03:47:15;9;7;
48893;PMS5003;34710;35.798;139.446;2022-09-09T03:49:44;10;9;
48893;PMS5003;34710;35.798;139.446;2022-09-09T03:52:15;7;7;
48893;PMS5003;34710;35.798;139.446;2022-09-09T03:54:45;7;7;
48893;PMS5003;34710;35.798;139.446;2022-09-09T03:57:15;7;7;
48893;PMS5003;34710;35.798;139.446;2022-09-09T03:59:44;9;9;
48893;PMS5003;34710;35.798;139.446;2022-09-09T04:02:13;10;9;
48893;PMS5003;34710;35.798;139.446;2022-09-09T04:04:42;9;9;
48893;PMS5003;34710;35.798;139.446;2022-09-09T04:07:12;6;6;
48893;PMS5003;34710;35.798;139.446;2022-09-09T04:09:41;7;7;
48893;PMS5003;34710;35.798;139.446;2022-09-09T04:12:11;9;9;
48893;PMS5003;34710;35.798;139.446;2022-09-09T04:14:40;8;8;
48893;PMS5003;34710;35.798;139.446;2022-09-09T04:17:09;8;8;
48893;PMS5003;34710;35.798;139.446;2022-09-09T04:19:38;10;9;
48893;PMS5003;34710;35.798;139.446;2022-09-09T04:22:08;8;8;
48893;PMS5003;34710;35.798;139.446;2022-09-09T04:24:38;8;8;
48893;PMS5003;34710;35.798;139.446;2022-09-09T04:27:07;7;7;
48893;PMS5003;34710;35.798;139.446;2022-09-09T04:29:37;8;7;
48893;PMS5003;34710;35.798;139.446;2022-09-09T04:32:06;7;7;
48893;PMS5003;34710;35.798;139.446;2022-09-09T04:34:36;7;7;
48893;PMS5003;34710;35.798;139.446;2022-09-09T04:37:05;9;8;
48893;PMS5003;34710;35.798;139.446;2022-09-09T04:39:34;9;8;
48893;PMS5003;34710;35.798;139.446;2022-09-09T04:42:04;6;6;
48893;PMS5003;34710;35.798;139.446;2022-09-09T04:44:33;10;8;
48893;PMS5003;34710;35.798;139.446;2022-09-09T04:47:02;10;10;
48893;PMS5003;34710;35.798;139.446;2022-09-09T04:49:31;11;10;
48893;PMS5003;34710;35.798;139.446;2022-09-09T04:52:01;8;8;
48893;PMS5003;34710;35.798;139.446;2022-09-09T04:54:31;8;8;
48893;PMS5003;34710;35.798;139.446;2022-09-09T04:57:01;7;7;
48893;PMS5003;34710;35.798;139.446;2022-09-09T04:59:29;9;9;
48893;PMS5003;34710;35.798;139.446;2022-09-09T05:01:59;10;8;
48893;PMS5003;34710;35.798;139.446;2022-09-09T05:04:28;10;10;
48893;PMS5003;34710;35.798;139.446;2022-09-09T05:06:58;8;8;
48893;PMS5003;34710;35.798;139.446;2022-09-09T05:09:27;9;9;
48893;PMS5003;34710;35.798;139.446;2022-09-09T05:11:57;10;9;
48893;PMS5003;34710;35.798;139.446;2022-09-09T05:14:26;10;10;
48893;PMS5003;34710;35.798;139.446;2022-09-09T05:16:55;14;13;
48893;PMS5003;34710;35.798;139.446;2022-09-09T05:19:25;14;13;
48893;PMS5003;34710;35.798;139.446;2022-09-09T05:21:54;11;11;
48893;PMS5003;34710;35.798;139.446;2022-09-09T05:24:23;13;12;
48893;PMS5003;34710;35.798;139.446;2022-09-09T05:26:52;9;9;
48893;PMS5003;34710;35.798;139.446;2022-09-09T05:29:21;12;11;
48893;PMS5003;34710;35.798;139.446;2022-09-09T05:31:51;9;9;
48893;PMS5003;34710;35.798;139.446;2022-09-09T05:34:21;13;13;
48893;PMS5003;34710;35.798;139.446;2022-09-09T05:36:50;15;13;
48893;PMS5003;34710;35.798;139.446;2022-09-09T05:39:20;12;12;
48893;PMS5003;34710;35.798;139.446;2022-09-09T05:41:49;9;9;
48893;PMS5003;34710;35.798;139.446;2022-09-09T05:44:18;11;11;
48893;PMS5003;34710;35.798;139.446;2022-09-09T05:46:47;12;12;
48893;PMS5003;34710;35.798;139.446;2022-09-09T05:49:16;11;11;
48893;PMS5003;34710;35.798;139.446;2022-09-09T05:51:47;10;10;
48893;PMS5003;34710;35.798;139.446;2022-09-09T05:54:16;10;10;
48893;PMS5003;34710;35.798;139.446;2022-09-09T05:56:45;12;12;
48893;PMS5003;34710;35.798;139.446;2022-09-09T05:59:14;14;13;
48893;PMS5003;34710;35.798;139.446;2022-09-09T06:01:44;12;11;
48893;PMS5003;34710;35.798;139.446;2022-09-09T06:04:14;14;13;
48893;PMS5003;34710;35.798;139.446;2022-09-09T06:06:43;12;12;
48893;PMS5003;34710;35.798;139.446;2022-09-09T06:09:12;15;15;
48893;PMS5003;34710;35.798;139.446;2022-09-09T06:11:42;14;13;
48893;PMS5003;34710;35.798;139.446;2022-09-09T06:14:12;15;15;
48893;PMS5003;34710;35.798;139.446;2022-09-09T06:16:41;16;14;
48893;PMS5003;34710;35.798;139.446;2022-09-09T06:19:10;16;15;
48893;PMS5003;34710;35.798;139.446;2022-09-09T06:21:40;15;15;
48893;PMS5003;34710;35.798;139.446;2022-09-09T06:24:09;15;14;
48893;PMS5003;34710;35.798;139.446;2022-09-09T06:26:39;15;15;
48893;PMS5003;34710;35.798;139.446;2022-09-09T06:29:09;15;15;
48893;PMS5003;34710;35.798;139.446;2022-09-09T06:31:38;16;14;
48893;PMS5003;34710;35.798;139.446;2022-09-09T06:34:08;16;14;
48893;PMS5003;34710;35.798;139.446;2022-09-09T06:36:37;16;15;
48893;PMS5003;34710;35.798;139.446;2022-09-09T06:39:07;17;14;
48893;PMS5003;34710;35.798;139.446;2022-09-09T06:41:36;25;15;
48893;PMS5003;34710;35.798;139.446;2022-09-09T06:44:05;17;16;
48893;PMS5003;34710;35.798;139.446;2022-09-09T06:46:34;12;12;
48893;PMS5003;34710;35.798;139.446;2022-09-09T06:49:04;13;12;
48893;PMS5003;34710;35.798;139.446;2022-09-09T06:51:34;15;15;
48893;PMS5003;34710;35.798;139.446;2022-09-09T06:54:04;14;14;
48893;PMS5003;34710;35.798;139.446;2022-09-09T06:56:34;13;13;
48893;PMS5003;34710;35.798;139.446;2022-09-09T06:59:05;12;12;
48893;PMS5003;34710;35.798;139.446;2022-09-09T07:01:36;15;14;
48893;PMS5003;34710;35.798;139.446;2022-09-09T07:04:06;16;15;
48893;PMS5003;34710;35.798;139.446;2022-09-09T07:06:37;14;14;
48893;PMS5003;34710;35.798;139.446;2022-09-09T07:09:09;16;15;
48893;PMS5003;34710;35.798;139.446;2022-09-09T07:11:39;21;14;
48893;PMS5003;34710;35.798;139.446;2022-09-09T07:14:10;14;14;
48893;PMS5003;34710;35.798;139.446;2022-09-09T07:16:41;12;12;
48893;PMS5003;34710;35.798;139.446;2022-09-09T07:19:11;16;16;
48893;PMS5003;34710;35.798;139.446;2022-09-09T07:21:42;12;12;
48893;PMS5003;34710;35.798;139.446;2022-09-09T07:24:12;21;14;
48893;PMS5003;34710;35.798;139.446;2022-09-09T07:26:42;13;13;
48893;PMS5003;34710;35.798;139.446;2022-09-09T07:29:10;12;12;
48893;PMS5003;34710;35.798;139.446;2022-09-09T07:31:40;14;14;
48893;PMS5003;34710;35.798;139.446;2022-09-09T07:34:10;14;14;
48893;PMS5003;34710;35.798;139.446;2022-09-09T07:36:39;13;11;
48893;PMS5003;34710;35.798;139.446;2022-09-09T07:39:09;16;15;
48893;PMS5003;34710;35.798;139.446;2022-09-09T07:41:41;16;13;
48893;PMS5003;34710;35.798;139.446;2022-09-09T07:44:13;17;15;
48893;PMS5003;34710;35.798;139.446;2022-09-09T07:46:43;16;14;
48893;PMS5003;34710;35.798;139.446;2022-09-09T07:49:13;15;14;
48893;PMS5003;34710;35.798;139.446;2022-09-09T07:51:43;13;12;
48893;PMS5003;34710;35.798;139.446;2022-09-09T07:54:15;16;15;
48893;PMS5003;34710;35.798;139.446;2022-09-09T07:56:46;18;18;
48893;PMS5003;34710;35.798;139.446;2022-09-09T07:59:16;15;14;
48893;PMS5003;34710;35.798;139.446;2022-09-09T08:01:47;15;15;
48893;PMS5003;34710;35.798;139.446;2022-09-09T08:04:18;16;16;
48893;PMS5003;34710;35.798;139.446;2022-09-09T08:06:49;16;15;
48893;PMS5003;34710;35.798;139.446;2022-09-09T08:09:21;15;15;
48893;PMS5003;34710;35.798;139.446;2022-09-09T08:11:50;19;18;
48893;PMS5003;34710;35.798;139.446;2022-09-09T08:14:20;17;15;
48893;PMS5003;34710;35.798;139.446;2022-09-09T08:16:50;18;16;
48893;PMS5003;34710;35.798;139.446;2022-09-09T08:19:20;18;16;
48893;PMS5003;34710;35.798;139.446;2022-09-09T08:21:49;14;14;
48893;PMS5003;34710;35.798;139.446;2022-09-09T08:24:18;19;17;
48893;PMS5003;34710;35.798;139.446;2022-09-09T08:26:48;16;15;
48893;PMS5003;34710;35.798;139.446;2022-09-09T08:29:18;16;15;
48893;PMS5003;34710;35.798;139.446;2022-09-09T08:31:47;15;15;
48893;PMS5003;34710;35.798;139.446;2022-09-09T08:34:18;16;16;
48893;PMS5003;34710;35.798;139.446;2022-09-09T08:36:48;15;14;
48893;PMS5003;34710;35.798;139.446;2022-09-09T08:39:19;16;16;
48893;PMS5003;34710;35.798;139.446;2022-09-09T08:41:55;17;16;
48893;PMS5003;34710;35.798;139.446;2022-09-09T08:44:36;15;15;
48893;PMS5003;34710;35.798;139.446;2022-09-09T08:47:23;15;15;
48893;PMS5003;34710;35.798;139.446;2022-09-09T08:50:16;16;14;
48893;PMS5003;34710;35.798;139.446;2022-09-09T08:52:51;14;14;
48893;PMS5003;34710;35.798;139.446;2022-09-09T08:55:28;17;16;
48893;PMS5003;34710;35.798;139.446;2022-09-09T08:58:06;16;15;
48893;PMS5003;34710;35.798;139.446;2022-09-09T09:00:42;17;15;
48893;PMS5003;34710;35.798;139.446;2022-09-09T09:03:22;19;18;
48893;PMS5003;34710;35.798;139.446;2022-09-09T09:06:01;13;13;
48893;PMS5003;34710;35.798;139.446;2022-09-09T09:08:39;14;14;
48893;PMS5003;34710;35.798;139.446;2022-09-09T09:11:18;17;15;
48893;PMS5003;34710;35.798;139.446;2022-09-09T09:13:48;17;17;
48893;PMS5003;34710;35.798;139.446;2022-09-09T09:16:27;18;18;
48893;PMS5003;34710;35.798;139.446;2022-09-09T09:19:01;16;16;
48893;PMS5003;34710;35.798;139.446;2022-09-09T09:21:34;17;16;
48893;PMS5003;34710;35.798;139.446;2022-09-09T09:24:10;15;15;
48893;PMS5003;34710;35.798;139.446;2022-09-09T09:26:45;17;16;
48893;PMS5003;34710;35.798;139.446;2022-09-09T09:29:15;17;17;
48893;PMS5003;34710;35.798;139.446;2022-09-09T09:31:47;17;16;
48893;PMS5003;34710;35.798;139.446;2022-09-09T09:34:20;18;18;
48893;PMS5003;34710;35.798;139.446;2022-09-09T09:36:53;16;16;
48893;PMS5003;34710;35.798;139.446;2022-09-09T09:39:25;16;16;
48893;PMS5003;34710;35.798;139.446;2022-09-09T09:41:56;19;17;
48893;PMS5003;34710;35.798;139.446;2022-09-09T09:44:34;23;18;
48893;PMS5003;34710;35.798;139.446;2022-09-09T09:47:07;20;17;
48893;PMS5003;34710;35.798;139.446;2022-09-09T09:49:39;19;18;
48893;PMS5003;34710;35.798;139.446;2022-09-09T09:52:21;18;18;
48893;PMS5003;34710;35.798;139.446;2022-09-09T09:54:53;20;18;
48893;PMS5003;34710;35.798;139.446;2022-09-09T09:57:26;19;17;
48893;PMS5003;34710;35.798;139.446;2022-09-09T10:00:02;20;19;
48893;PMS5003;34710;35.798;139.446;2022-09-09T10:02:40;18;18;
48893;PMS5003;34710;35.798;139.446;2022-09-09T10:05:13;19;18;
48893;PMS5003;34710;35.798;139.446;2022-09-09T10:07:44;20;20;
48893;PMS5003;34710;35.798;139.446;2022-09-09T10:10:15;29;18;
48893;PMS5003;34710;35.798;139.446;2022-09-09T10:12:51;22;19;
48893;PMS5003;34710;35.798;139.446;2022-09-09T10:15:32;32;22;
48893;PMS5003;34710;35.798;139.446;2022-09-09T10:18:17;29;18;
48893;PMS5003;34710;35.798;139.446;2022-09-09T10:21:00;28;17;
48893;PMS5003;34710;35.798;139.446;2022-09-09T10:23:48;26;18;
48893;PMS5003;34710;35.798;139.446;2022-09-09T10:26:34;18;17;
48893;PMS5003;34710;35.798;139.446;2022-09-09T10:29:18;29;21;
48893;PMS5003;34710;35.798;139.446;2022-09-09T10:32:03;15;15;
48893;PMS5003;34710;35.798;139.446;2022-09-09T10:34:56;17;17;
48893;PMS5003;34710;35.798;139.446;2022-09-09T10:37:35;19;18;
48893;PMS5003;34710;35.798;139.446;2022-09-09T10:40:25;13;12;
48893;PMS5003;34710;35.798;139.446;2022-09-09T10:43:00;14;13;
48893;PMS5003;34710;35.798;139.446;2022-09-09T10:45:43;23;12;
48893;PMS5003;34710;35.798;139.446;2022-09-09T10:48:28;113;71;
48893;PMS5003;34710;35.798;139.446;2022-09-09T10:51:09;7;7;
48893;PMS5003;34710;35.798;139.446;2022-09-09T10:53:53;7;5;
48893;PMS5003;34710;35.798;139.446;2022-09-09T10:56:35;15;10;
48893;PMS5003;34710;35.798;139.446;2022-09-09T10:59:06;5;5;
48893;PMS5003;34710;35.798;139.446;2022-09-09T11:01:42;4;4;
48893;PMS5003;34710;35.798;139.446;2022-09-09T11:04:17;3;3;
48893;PMS5003;34710;35.798;139.446;2022-09-09T11:06:50;5;5;
48893;PMS5003;34710;35.798;139.446;2022-09-09T11:09:23;6;4;
48893;PMS5003;34710;35.798;139.446;2022-09-09T11:11:55;5;4;
48893;PMS5003;34710;35.798;139.446;2022-09-09T11:14:28;3;3;
48893;PMS5003;34710;35.798;139.446;2022-09-09T11:17:04;5;5;
48893;PMS5003;34710;35.798;139.446;2022-09-09T11:19:39;7;6;
48893;PMS5003;34710;35.798;139.446;2022-09-09T11:22:14;5;5;
48893;PMS5003;34710;35.798;139.446;2022-09-09T11:24:49;4;4;
48893;PMS5003;34710;35.798;139.446;2022-09-09T11:27:23;15;4;
48893;PMS5003;34710;35.798;139.446;2022-09-09T11:30:03;6;6;
48893;PMS5003;34710;35.798;139.446;2022-09-09T11:32:47;5;4;
48893;PMS5003;34710;35.798;139.446;2022-09-09T11:35:31;8;5;
48893;PMS5003;34710;35.798;139.446;2022-09-09T11:38:25;4;4;
48893;PMS5003;34710;35.798;139.446;2022-09-09T11:40:56;4;4;
48893;PMS5003;34710;35.798;139.446;2022-09-09T11:43:30;3;3;
48893;PMS5003;34710;35.798;139.446;2022-09-09T11:46:06;3;3;
48893;PMS5003;34710;35.798;139.446;2022-09-09T11:48:37;5;5;
48893;PMS5003;34710;35.798;139.446;2022-09-09T11:51:07;6;3;
48893;PMS5003;34710;35.798;139.446;2022-09-09T11:53:47;2;2;
48893;PMS5003;34710;35.798;139.446;2022-09-09T11:56:26;3;3;
48893;PMS5003;34710;35.798;139.446;2022-09-09T11:58:58;3;3;
48893;PMS5003;34710;35.798;139.446;2022-09-09T12:01:35;5;2;
48893;PMS5003;34710;35.798;139.446;2022-09-09T12:04:11;2;2;
48893;PMS5003;34710;35.798;139.446;2022-09-09T12:06:50;3;3;
48893;PMS5003;34710;35.798;139.446;2022-09-09T12:09:25;3;3;
48893;PMS5003;34710;35.798;139.446;2022-09-09T12:12:06;2;2;
48893;PMS5003;34710;35.798;139.446;2022-09-09T12:14:56;3;3;
48893;PMS5003;34710;35.798;139.446;2022-09-09T12:17:27;3;3;
48893;PMS5003;34710;35.798;139.446;2022-09-09T12:20:02;2;2;
48893;PMS5003;34710;35.798;139.446;2022-09-09T12:22:44;5;3;
48893;PMS5003;34710;35.798;139.446;2022-09-09T12:25:26;5;4;
48893;PMS5003;34710;35.798;139.446;2022-09-09T12:28:05;4;3;
48893;PMS5003;34710;35.798;139.446;2022-09-09T12:30:46;4;3;
48893;PMS5003;34710;35.798;139.446;2022-09-09T12:33:22;5;4;
48893;PMS5003;34710;35.798;139.446;2022-09-09T12:35:54;7;4;
48893;PMS5003;34710;35.798;139.446;2022-09-09T12:38:27;6;5;
48893;PMS5003;34710;35.798;139.446;2022-09-09T12:41:00;5;5;
48893;PMS5003;34710;35.798;139.446;2022-09-09T12:43:29;5;3;
48893;PMS5003;34710;35.798;139.446;2022-09-09T12:45:59;4;4;
48893;PMS5003;34710;35.798;139.446;2022-09-09T12:48:32;7;5;
48893;PMS5003;34710;35.798;139.446;2022-09-09T12:51:05;7;7;
48893;PMS5003;34710;35.798;139.446;2022-09-09T12:53:44;5;4;
48893;PMS5003;34710;35.798;139.446;2022-09-09T12:56:19;3;3;
48893;PMS5003;34710;35.798;139.446;2022-09-09T12:58:50;6;4;
48893;PMS5003;34710;35.798;139.446;2022-09-09T13:01:23;3;3;
48893;PMS5003;34710;35.798;139.446;2022-09-09T13:03:54;3;3;
48893;PMS5003;34710;35.798;139.446;2022-09-09T13:06:24;4;4;
48893;PMS5003;34710;35.798;139.446;2022-09-09T13:08:56;3;3;
48893;PMS5003;34710;35.798;139.446;2022-09-09T13:11:29;2;2;
48893;PMS5003;34710;35.798;139.446;2022-09-09T13:14:04;7;4;
48893;PMS5003;34710;35.798;139.446;2022-09-09T13:16:34;4;4;
48893;PMS5003;34710;35.798;139.446;2022-09-09T13:19:07;3;3;
48893;PMS5003;34710;35.798;139.446;2022-09-09T13:21:41;7;7;
48893;PMS5003;34710;35.798;139.446;2022-09-09T13:24:23;4;4;
48893;PMS5003;34710;35.798;139.446;2022-09-09T13:26:56;3;3;
48893;PMS5003;34710;35.798;139.446;2022-09-09T13:29:28;4;4;
48893;PMS5003;34710;35.798;139.446;2022-09-09T13:32:04;7;4;
48893;PMS5003;34710;35.798;139.446;2022-09-09T13:34:40;6;6;
48893;PMS5003;34710;35.798;139.446;2022-09-09T13:37:21;5;4;
48893;PMS5003;34710;35.798;139.446;2022-09-09T13:39:54;6;4;
48893;PMS5003;34710;35.798;139.446;2022-09-09T13:42:25;3;3;
48893;PMS5003;34710;35.798;139.446;2022-09-09T13:44:58;4;3;
48893;PMS5003;34710;35.798;139.446;2022-09-09T13:47:30;5;5;
48893;PMS5003;34710;35.798;139.446;2022-09-09T13:50:15;2;2;
48893;PMS5003;34710;35.798;139.446;2022-09-09T13:52:48;2;2;
48893;PMS5003;34710;35.798;139.446;2022-09-09T13:55:19;5;3;
48893;PMS5003;34710;35.798;139.446;2022-09-09T13:57:51;8;5;
48893;PMS5003;34710;35.798;139.446;2022-09-09T14:00:21;4;3;
48893;PMS5003;34710;35.798;139.446;2022-09-09T14:02:51;5;3;
48893;PMS5003;34710;35.798;139.446;2022-09-09T14:05:21;4;4;
48893;PMS5003;34710;35.798;139.446;2022-09-09T14:07:51;9;6;
48893;PMS5003;34710;35.798;139.446;2022-09-09T14:10:21;7;4;
48893;PMS5003;34710;35.798;139.446;2022-09-09T14:12:50;3;3;
48893;PMS5003;34710;35.798;139.446;2022-09-09T14:15:19;6;5;
48893;PMS5003;34710;35.798;139.446;2022-09-09T14:17:48;4;4;
48893;PMS5003;34710;35.798;139.446;2022-09-09T14:20:18;7;5;
48893;PMS5003;34710;35.798;139.446;2022-09-09T14:22:47;4;4;
48893;PMS5003;34710;35.798;139.446;2022-09-09T14:25:16;5;5;
48893;PMS5003;34710;35.798;139.446;2022-09-09T14:27:46;4;3;
48893;PMS5003;34710;35.798;139.446;2022-09-09T14:30:15;3;3;
48893;PMS5003;34710;35.798;139.446;2022-09-09T14:32:44;4;3;
48893;PMS5003;34710;35.798;139.446;2022-09-09T14:35:13;6;3;
48893;PMS5003;34710;35.798;139.446;2022-09-09T14:37:42;7;4;
48893;PMS5003;34710;35.798;139.446;2022-09-09T14:40:12;3;3;
48893;PMS5003;34710;35.798;139.446;2022-09-09T14:42:41;8;4;
48893;PMS5003;34710;35.798;139.446;2022-09-09T14:45:12;4;4;
48893;PMS5003;34710;35.798;139.446;2022-09-09T14:47:41;4;4;
48893;PMS5003;34710;35.798;139.446;2022-09-09T14:50:12;5;4;
48893;PMS5003;34710;35.798;139.446;2022-09-09T14:52:41;5;4;
48893;PMS5003;34710;35.798;139.446;2022-09-09T14:55:11;4;3;
48893;PMS5003;34710;35.798;139.446;2022-09-09T14:57:40;4;4;
48893;PMS5003;34710;35.798;139.446;2022-09-09T15:00:10;2;2;
48893;PMS5003;34710;35.798;139.446;2022-09-09T15:02:39;5;4;
48893;PMS5003;34710;35.798;139.446;2022-09-09T15:05:09;5;4;
48893;PMS5003;34710;35.798;139.446;2022-09-09T15:07:38;4;4;
48893;PMS5003;34710;35.798;139.446;2022-09-09T15:10:08;5;4;
48893;PMS5003;34710;35.798;139.446;2022-09-09T15:12:37;5;3;
48893;PMS5003;34710;35.798;139.446;2022-09-09T15:15:07;3;3;
48893;PMS5003;34710;35.798;139.446;2022-09-09T15:17:37;2;2;
48893;PMS5003;34710;35.798;139.446;2022-09-09T15:20:07;2;2;
48893;PMS5003;34710;35.798;139.446;2022-09-09T15:22:36;3;3;
48893;PMS5003;34710;35.798;139.446;2022-09-09T15:25:08;3;3;
48893;PMS5003;34710;35.798;139.446;2022-09-09T15:27:37;6;4;
48893;PMS5003;34710;35.798;139.446;2022-09-09T15:30:06;4;4;
48893;PMS5003;34710;35.798;139.446;2022-09-09T15:32:36;3;3;
48893;PMS5003;34710;35.798;139.446;2022-09-09T15:35:06;3;3;
48893;PMS5003;34710;35.798;139.446;2022-09-09T15:37:36;3;2;
48893;PMS5003;34710;35.798;139.446;2022-09-09T15:40:05;3;3;
48893;PMS5003;34710;35.798;139.446;2022-09-09T15:42:36;4;4;
48893;PMS5003;34710;35.798;139.446;2022-09-09T15:45:08;9;3;
48893;PMS5003;34710;35.798;139.446;2022-09-09T15:47:38;3;3;
48893;PMS5003;34710;35.798;139.446;2022-09-09T15:50:08;5;4;
48893;PMS5003;34710;35.798;139.446;2022-09-09T15:52:37;3;3;
48893;PMS5003;34710;35.798;139.446;2022-09-09T15:55:06;4;4;
48893;PMS5003;34710;35.798;139.446;2022-09-09T15:57:36;5;5;
48893;PMS5003;34710;35.798;139.446;2022-09-09T16:00:06;5;3;
48893;PMS5003;34710;35.798;139.446;2022-09-09T16:02:36;4;4;
48893;PMS5003;34710;35.798;139.446;2022-09-09T16:05:06;5;2;
48893;PMS5003;34710;35.798;139.446;2022-09-09T16:07:36;5;4;
48893;PMS5003;34710;35.798;139.446;2022-09-09T16:10:06;5;5;
48893;PMS5003;34710;35.798;139.446;2022-09-09T16:12:36;5;3;
48893;PMS5003;34710;35.798;139.446;2022-09-09T16:15:05;3;3;
48893;PMS5003;34710;35.798;139.446;2022-09-09T16:17:35;3;3;
48893;PMS5003;34710;35.798;139.446;2022-09-09T16:20:05;3;3;
48893;PMS5003;34710;35.798;139.446;2022-09-09T16:22:35;6;4;
48893;PMS5003;34710;35.798;139.446;2022-09-09T16:25:04;4;4;
48893;PMS5003;34710;35.798;139.446;2022-09-09T16:27:34;3;2;
48893;PMS5003;34710;35.798;139.446;2022-09-09T16:30:04;7;4;
48893;PMS5003;34710;35.798;139.446;2022-09-09T16:32:34;8;5;
48893;PMS5003;34710;35.798;139.446;2022-09-09T16:35:03;5;3;
48893;PMS5003;34710;35.798;139.446;2022-09-09T16:37:33;6;4;
48893;PMS5003;34710;35.798;139.446;2022-09-09T16:40:03;8;6;
48893;PMS5003;34710;35.798;139.446;2022-09-09T16:42:33;5;5;